createdAt,value
2018-12-24T00:05:19.377Z,11.22
2018-12-24T00:08:07.213Z,10.47
2018-12-24T00:10:35.898Z,10.43
2018-12-24T00:13:23.822Z,10.40
2018-12-24T00:18:45.618Z,10.27
2018-12-24T00:21:14.204Z,10.12
2018-12-24T00:23:42.837Z,10.06
2018-12-24T00:26:11.419Z,9.97
2018-12-24T00:31:32.903Z,10.01
2018-12-24T00:36:55.357Z,9.99
2018-12-24T00:39:24.025Z,9.85
2018-12-24T00:42:15.989Z,9.93
2018-12-24T00:44:42.982Z,9.88
2018-12-24T00:47:12.026Z,9.68
2018-12-24T00:52:53.725Z,9.52
2018-12-24T00:58:15.257Z,9.38
2018-12-24T01:03:37.478Z,9.30
2018-12-24T01:06:25.412Z,9.27
2018-12-24T01:09:13.267Z,9.19
2018-12-24T01:11:41.923Z,9.11
2018-12-24T01:14:29.697Z,9.11
2018-12-24T01:16:58.325Z,9.04
2018-12-24T01:19:46.229Z,9.09
2018-12-24T01:22:34.162Z,9.03
2018-12-24T01:25:21.943Z,8.99
2018-12-24T01:30:44.390Z,8.81
2018-12-24T01:36:05.942Z,8.79
2018-12-24T01:41:28.180Z,8.60
2018-12-24T01:43:56.818Z,8.75
2018-12-24T01:46:44.720Z,8.66
2018-12-24T01:49:32.619Z,8.58
2018-12-24T01:52:20.548Z,8.54
2018-12-24T01:55:08.405Z,8.39
2018-12-24T01:57:56.234Z,8.32
2018-12-24T02:00:44.197Z,8.22
2018-12-24T02:03:12.779Z,8.23
2018-12-24T02:06:00.724Z,8.22
2018-12-24T02:08:48.547Z,8.18
2018-12-24T02:11:17.159Z,7.98
2018-12-24T02:13:45.734Z,7.99
2018-12-24T02:16:33.819Z,7.84
2018-12-24T02:19:02.783Z,7.84
2018-12-24T02:21:31.769Z,7.82
2018-12-24T02:24:00.453Z,7.81
2018-12-24T02:27:26.753Z,7.79
2018-12-24T02:32:48.903Z,7.72
2018-12-24T02:35:36.708Z,7.63
2018-12-24T02:38:24.610Z,7.52
2018-12-24T02:41:14.270Z,7.67
2018-12-24T02:43:42.849Z,7.51
2018-12-24T02:46:30.688Z,7.47
2018-12-24T02:48:59.272Z,7.36
2018-12-24T02:51:47.104Z,7.32
2018-12-24T02:54:15.683Z,7.31
2018-12-24T02:56:44.266Z,7.26
2018-12-24T02:59:32.317Z,7.20
2018-12-24T03:02:00.891Z,7.13
2018-12-24T03:04:48.830Z,7.10
2018-12-24T03:07:36.678Z,7.09
2018-12-24T03:10:45.334Z,7.02
2018-12-24T03:13:33.194Z,7.03
2018-12-24T03:16:01.817Z,6.97
2018-12-24T03:18:30.386Z,6.88
2018-12-24T03:20:58.964Z,7.02
2018-12-24T03:23:46.919Z,6.81
2018-12-24T03:26:34.751Z,6.79
2018-12-24T03:29:22.656Z,6.84
2018-12-24T03:32:10.522Z,6.80
2018-12-24T03:34:39.174Z,6.73
2018-12-24T03:37:27.007Z,6.75
2018-12-24T03:40:14.826Z,6.68
2018-12-24T03:43:12.098Z,6.79
2018-12-24T03:45:52.258Z,6.78
2018-12-24T03:51:14.088Z,6.78
2018-12-24T03:56:55.115Z,6.75
2018-12-24T03:59:23.856Z,6.71
2018-12-24T04:01:54.090Z,6.66
2018-12-24T04:04:22.669Z,6.70
2018-12-24T04:07:10.603Z,6.71
2018-12-24T04:09:39.175Z,6.71
2018-12-24T04:12:07.791Z,6.63
2018-12-24T04:14:55.693Z,6.77
2018-12-24T04:17:24.300Z,6.82
2018-12-24T04:20:12.014Z,6.85
2018-12-24T04:22:59.807Z,6.79
2018-12-24T04:25:47.635Z,6.69
2018-12-24T04:28:16.246Z,6.72
2018-12-24T04:31:04.073Z,6.73
2018-12-24T04:36:25.797Z,6.71
2018-12-24T04:38:54.419Z,6.87
2018-12-24T04:41:42.307Z,6.88
2018-12-24T04:47:04.461Z,6.85
2018-12-24T04:49:52.267Z,6.89
2018-12-24T04:52:40.040Z,7.02
2018-12-24T04:55:27.926Z,6.87
2018-12-24T04:57:56.502Z,6.96
2018-12-24T05:00:44.432Z,6.87
2018-12-24T05:03:13.010Z,6.89
2018-12-24T05:06:00.945Z,7.01
2018-12-24T05:08:48.842Z,6.97
2018-12-24T05:11:36.750Z,7.03
2018-12-24T05:14:24.644Z,7.08
2018-12-24T05:17:12.541Z,6.99
2018-12-24T05:20:00.444Z,6.96
2018-12-24T05:25:22.251Z,6.99
2018-12-24T05:30:24.907Z,6.96
2018-12-24T05:33:12.898Z,6.98
2018-12-24T05:36:00.857Z,6.88
2018-12-24T05:41:16.953Z,6.81
2018-12-24T05:44:04.662Z,6.83
2018-12-24T05:46:33.284Z,6.82
2018-12-24T05:49:01.862Z,6.65
2018-12-24T05:51:30.447Z,6.67
2018-12-24T05:53:59.060Z,6.62
2018-12-24T05:56:46.954Z,6.68
2018-12-24T05:59:34.691Z,6.80
2018-12-24T06:02:22.683Z,6.76
2018-12-24T06:08:04.200Z,6.71
2018-12-24T06:13:06.380Z,6.68
2018-12-24T06:18:28.776Z,6.64
2018-12-24T06:23:50.925Z,6.68
2018-12-24T06:29:12.798Z,6.66
2018-12-24T06:31:41.416Z,6.60
2018-12-24T06:34:29.207Z,6.56
2018-12-24T06:40:11.029Z,6.62
2018-12-24T06:42:39.640Z,6.69
2018-12-24T06:45:27.539Z,6.67
2018-12-24T06:48:15.475Z,6.70
2018-12-24T06:51:03.303Z,6.76
2018-12-24T06:53:51.196Z,6.86
2018-12-24T06:56:39.023Z,6.79
2018-12-24T07:02:20.728Z,6.95
2018-12-24T07:05:08.767Z,6.91
2018-12-24T07:07:56.471Z,7.05
2018-12-24T07:10:44.274Z,6.96
2018-12-24T07:13:32.176Z,7.02
2018-12-24T07:16:21.850Z,7.09
2018-12-24T07:19:11.159Z,7.28
2018-12-24T07:21:59.386Z,7.18
2018-12-24T07:24:27.946Z,7.23
2018-12-24T07:27:15.964Z,7.23
2018-12-24T07:29:44.543Z,7.00
2018-12-24T07:32:32.489Z,7.18
2018-12-24T07:35:20.497Z,7.33
2018-12-24T07:37:50.728Z,7.28
2018-12-24T07:40:19.335Z,7.46
2018-12-24T07:45:41.467Z,7.29
2018-12-24T07:51:03.564Z,7.20
2018-12-24T07:53:51.424Z,7.04
2018-12-24T07:56:39.331Z,7.46
2018-12-24T07:59:27.057Z,7.33
2018-12-24T08:02:14.957Z,7.42
2018-12-24T08:04:43.672Z,7.60
2018-12-24T08:07:31.433Z,7.53
2018-12-24T08:10:12.364Z,7.47
2018-12-24T08:12:40.935Z,7.40
2018-12-24T08:15:09.583Z,7.42
2018-12-24T08:17:38.194Z,7.40
2018-12-24T08:20:26.095Z,7.22
2018-12-24T08:23:13.902Z,7.41
2018-12-24T08:28:49.295Z,7.15
2018-12-24T08:31:36.994Z,7.09
2018-12-24T08:34:24.925Z,7.03
2018-12-24T08:40:19.427Z,7.21
2018-12-24T08:42:48.007Z,7.28
2018-12-24T08:45:36.052Z,7.41
2018-12-24T08:48:24.040Z,7.41
2018-12-24T08:51:11.914Z,7.50
2018-12-24T08:53:59.736Z,7.49
2018-12-24T08:56:29.314Z,7.42
2018-12-24T08:59:17.895Z,7.31
2018-12-24T09:02:05.756Z,7.49
2018-12-24T09:04:53.666Z,7.46
2018-12-24T09:10:15.604Z,7.34
2018-12-24T09:12:44.247Z,7.44
2018-12-24T09:18:19.556Z,7.45
2018-12-24T09:21:07.269Z,7.48
2018-12-24T09:23:35.995Z,7.58
2018-12-24T09:26:25.529Z,7.63
2018-12-24T09:29:13.559Z,7.65
2018-12-24T09:32:01.544Z,7.58
2018-12-24T09:37:23.854Z,7.41
2018-12-24T09:42:46.418Z,7.50
2018-12-24T09:45:34.282Z,7.72
2018-12-24T09:48:22.111Z,7.68
2018-12-24T09:53:24.249Z,8.02
2018-12-24T09:56:12.581Z,8.11
2018-12-24T09:59:01.716Z,8.07
2018-12-24T10:04:44.231Z,8.31
2018-12-24T10:07:31.965Z,8.30
2018-12-24T10:10:19.767Z,8.37
2018-12-24T10:15:41.556Z,8.23
2018-12-24T10:20:44.095Z,8.32
2018-12-24T10:23:31.943Z,8.45
2018-12-24T10:29:07.380Z,8.46
2018-12-24T10:31:55.366Z,8.45
2018-12-24T10:34:43.323Z,8.34
2018-12-24T10:37:11.961Z,8.43
2018-12-24T10:45:47.797Z,8.90
2018-12-24T10:48:16.379Z,8.86
2018-12-24T10:51:04.293Z,8.63
2018-12-24T10:53:32.892Z,8.72
2018-12-24T10:56:20.867Z,8.68
2018-12-24T10:59:08.841Z,8.53
2018-12-24T11:01:56.644Z,8.47
2018-12-24T11:04:44.633Z,8.30
2018-12-24T11:10:47.191Z,8.10
2018-12-24T11:13:15.850Z,8.12
2018-12-24T11:15:44.447Z,8.09
2018-12-24T11:21:19.685Z,8.06
2018-12-24T11:23:48.262Z,8.24
2018-12-24T11:29:30.009Z,8.58
2018-12-24T11:32:18.072Z,8.44
2018-12-24T11:34:46.751Z,8.55
2018-12-24T11:37:34.768Z,8.61
2018-12-24T11:40:22.668Z,8.72
2018-12-24T11:45:33.631Z,8.63
2018-12-24T11:50:48.815Z,8.73
2018-12-24T11:53:36.661Z,8.57
2018-12-24T11:56:24.808Z,8.47
2018-12-24T11:58:53.514Z,8.47
2018-12-24T12:01:22.416Z,8.24
2018-12-24T12:03:51.063Z,8.33
2018-12-24T12:09:31.696Z,8.19
2018-12-24T12:12:19.631Z,8.14
2018-12-24T12:15:07.485Z,8.01
2018-12-24T12:17:55.473Z,8.07
2018-12-24T12:26:30.405Z,7.91
2018-12-24T12:28:59.735Z,7.86
2018-12-24T12:31:47.676Z,8.08
2018-12-24T12:34:35.495Z,8.19
2018-12-24T12:37:04.107Z,8.16
2018-12-24T12:39:32.687Z,8.23
2018-12-24T12:47:28.226Z,8.26
2018-12-24T12:49:56.807Z,8.23
2018-12-24T12:52:25.392Z,8.23
2018-12-24T12:55:13.197Z,8.43
2018-12-24T13:00:35.119Z,8.44
2018-12-24T13:03:22.966Z,8.54
2018-12-24T13:06:11.087Z,8.42
2018-12-24T13:11:33.484Z,8.37
2018-12-24T13:14:02.101Z,8.26
2018-12-24T13:16:50.000Z,8.36
2018-12-24T13:19:44.896Z,8.50
2018-12-24T13:22:32.738Z,8.60
2018-12-24T13:25:20.837Z,8.52
2018-12-24T13:27:49.413Z,8.45
2018-12-24T13:30:37.453Z,8.41
2018-12-24T13:33:06.060Z,8.44
2018-12-24T13:35:34.643Z,8.41
2018-12-24T13:43:49.794Z,8.13
2018-12-24T13:46:37.728Z,7.97
2018-12-24T13:49:25.594Z,7.68
2018-12-24T13:55:06.487Z,7.74
2018-12-24T13:57:54.443Z,7.70
2018-12-24T14:00:42.214Z,7.64
2018-12-24T14:03:30.148Z,7.74
2018-12-24T14:06:18.440Z,7.68
2018-12-24T14:08:47.078Z,7.63
2018-12-24T14:11:15.664Z,7.61
2018-12-24T14:13:44.242Z,7.63
2018-12-24T14:16:31.995Z,7.58
2018-12-24T14:19:20.016Z,7.48
2018-12-24T14:22:07.821Z,7.63
2018-12-24T14:24:36.415Z,7.63
2018-12-24T14:27:24.406Z,7.65
2018-12-24T14:29:52.985Z,7.52
2018-12-24T14:32:40.976Z,7.65
2018-12-24T14:35:09.628Z,7.51
2018-12-24T14:37:38.208Z,7.39
2018-12-24T14:40:46.872Z,7.36
2018-12-24T14:43:15.444Z,7.57
2018-12-24T14:46:03.299Z,7.69
2018-12-24T14:48:31.878Z,7.58
2018-12-24T14:51:19.912Z,7.58
2018-12-24T14:53:48.494Z,7.35
2018-12-24T14:56:36.364Z,7.40
2018-12-24T14:59:05.029Z,7.34
2018-12-24T15:01:33.590Z,7.37
2018-12-24T15:04:21.453Z,7.36
2018-12-24T15:07:09.237Z,7.31
2018-12-24T15:09:57.124Z,7.39
2018-12-24T15:12:44.903Z,7.26
2018-12-24T15:15:13.526Z,7.32
2018-12-24T15:18:01.436Z,7.12
2018-12-24T15:23:42.705Z,6.96
2018-12-24T15:26:11.328Z,7.19
2018-12-24T15:29:01.329Z,6.92
2018-12-24T15:31:48.904Z,6.66
2018-12-24T15:34:36.694Z,6.39
2018-12-24T15:37:24.631Z,6.07
2018-12-24T15:39:53.280Z,5.69
2018-12-24T15:42:41.155Z,5.90
2018-12-24T15:45:28.936Z,6.37
2018-12-24T15:48:17.121Z,6.48
2018-12-24T15:50:45.787Z,6.18
2018-12-24T15:56:26.967Z,6.49
2018-12-24T15:59:14.869Z,6.40
2018-12-24T16:02:02.788Z,6.20
2018-12-24T16:04:31.404Z,6.21
2018-12-24T16:12:41.916Z,6.43
2018-12-24T16:15:30.011Z,6.14
2018-12-24T16:17:58.598Z,5.74
2018-12-24T16:20:46.460Z,5.92
2018-12-24T16:23:15.106Z,6.00
2018-12-24T16:25:43.691Z,5.99
2018-12-24T16:28:31.434Z,5.86
2018-12-24T16:33:34.256Z,5.82
2018-12-24T16:36:22.144Z,5.73
2018-12-24T16:42:16.908Z,5.82
2018-12-24T16:44:45.554Z,5.47
2018-12-24T16:47:33.580Z,5.39
2018-12-24T16:50:21.499Z,5.43
2018-12-24T16:53:09.389Z,5.33
2018-12-24T16:55:57.295Z,5.40
2018-12-24T16:58:25.934Z,5.34
2018-12-24T17:01:13.698Z,5.25
2018-12-24T17:03:42.323Z,4.93
2018-12-24T17:06:10.905Z,4.91
2018-12-24T17:09:00.194Z,5.07
2018-12-24T17:11:48.270Z,5.04
2018-12-24T17:17:10.740Z,4.88
2018-12-24T17:19:58.689Z,4.93
2018-12-24T17:22:46.416Z,5.06
2018-12-24T17:31:21.156Z,4.69
2018-12-24T17:34:08.929Z,4.36
2018-12-24T17:36:56.952Z,4.59
2018-12-24T17:39:25.526Z,4.54
2018-12-24T17:42:15.060Z,4.60
2018-12-24T17:44:43.650Z,4.28
2018-12-24T17:47:31.680Z,4.56
2018-12-24T17:50:00.292Z,4.72
2018-12-24T17:52:28.859Z,4.79
2018-12-24T17:55:16.776Z,4.62
2018-12-24T18:03:53.400Z,4.41
2018-12-24T18:06:21.981Z,4.04
2018-12-24T18:09:11.750Z,3.83
2018-12-24T18:11:59.582Z,3.43
2018-12-24T18:14:47.404Z,2.87
2018-12-24T18:17:15.982Z,2.61
2018-12-24T18:20:03.724Z,2.90
2018-12-24T18:22:51.625Z,3.11
2018-12-24T18:25:39.657Z,2.87
2018-12-24T18:28:08.230Z,3.03
2018-12-24T18:30:36.879Z,2.84
2018-12-24T18:36:18.675Z,3.26
2018-12-24T18:39:06.499Z,3.50
2018-12-24T18:44:09.212Z,3.83
2018-12-24T18:46:57.137Z,3.59
2018-12-24T18:49:25.752Z,3.39
2018-12-24T18:51:54.332Z,3.05
2018-12-24T18:54:42.195Z,3.06
2018-12-24T18:57:10.776Z,2.93
2018-12-24T19:02:32.689Z,2.32
2018-12-24T19:05:20.652Z,2.28
2018-12-24T19:08:08.480Z,2.07
2018-12-24T19:10:37.086Z,2.30
2018-12-24T19:13:24.916Z,2.56
2018-12-24T19:18:46.564Z,2.75
2018-12-24T19:21:34.523Z,2.74
2018-12-24T19:24:03.101Z,2.53
2018-12-24T19:26:31.679Z,2.35
2018-12-24T19:29:19.612Z,2.30
2018-12-24T19:31:48.187Z,2.18
2018-12-24T19:34:36.154Z,1.93
2018-12-24T19:43:24.629Z,1.96
2018-12-24T19:48:27.579Z,1.47
2018-12-24T19:50:56.162Z,1.87
2018-12-24T19:53:24.781Z,1.73
2018-12-24T19:56:12.679Z,1.72
2018-12-24T19:59:00.544Z,1.75
2018-12-24T20:01:48.405Z,1.77
2018-12-24T20:04:36.432Z,1.82
2018-12-24T20:07:24.277Z,1.74
2018-12-24T20:10:12.215Z,1.45
2018-12-24T20:13:00.041Z,1.18
2018-12-24T20:18:02.891Z,1.07
2018-12-24T20:23:25.114Z,1.36
2018-12-24T20:25:53.738Z,1.31
2018-12-24T20:28:41.723Z,1.24
2018-12-24T20:34:03.565Z,0.92
2018-12-24T20:36:51.495Z,0.67
2018-12-24T20:39:20.077Z,0.74
2018-12-24T20:41:48.691Z,0.80
2018-12-24T20:44:36.462Z,0.82
2018-12-24T20:47:24.364Z,0.43
2018-12-24T20:50:12.190Z,0.54
2018-12-24T20:52:40.829Z,0.91
2018-12-24T20:55:28.604Z,0.72
2018-12-24T21:00:37.820Z,0.61
2018-12-24T21:03:25.723Z,0.49
2018-12-24T21:05:54.365Z,0.43
2018-12-24T21:08:42.347Z,0.48
2018-12-24T21:11:10.922Z,0.17
2018-12-24T21:13:58.808Z,0.33
2018-12-24T21:19:14.851Z,0.24
2018-12-24T21:22:02.757Z,0.24
2018-12-24T21:27:43.608Z,0.14
2018-12-24T21:30:31.532Z,0.17
2018-12-24T21:33:00.106Z,0.14
2018-12-24T21:35:28.690Z,0.14
2018-12-24T21:38:16.561Z,0.45
2018-12-24T21:40:45.130Z,0.40
2018-12-24T21:43:33.143Z,0.52
2018-12-24T21:46:20.917Z,0.33
2018-12-24T21:51:42.744Z,0.54
2018-12-24T21:57:04.627Z,0.58
2018-12-24T21:59:52.542Z,0.48
2018-12-24T22:02:21.124Z,0.42
2018-12-24T22:04:51.445Z,0.31
2018-12-24T22:07:20.055Z,0.31
2018-12-24T22:09:48.634Z,0.32
2018-12-24T22:12:17.253Z,0.22
2018-12-24T22:15:05.152Z,0.09
2018-12-24T22:17:34.930Z,0.04
2018-12-24T22:20:03.714Z,0.10
2018-12-24T22:22:32.516Z,-0.03
2018-12-24T22:25:01.183Z,-0.11
2018-12-24T22:27:29.835Z,-0.12
2018-12-24T22:29:58.521Z,-0.16
2018-12-24T22:32:27.109Z,-0.06
2018-12-24T22:34:55.725Z,-0.19
2018-12-24T22:37:27.398Z,-0.23
2018-12-24T22:39:56.104Z,-0.34
2018-12-24T22:42:24.688Z,-0.44
2018-12-24T22:44:53.269Z,-0.49
2018-12-24T22:47:21.888Z,-0.47
2018-12-24T22:49:50.469Z,-0.38
2018-12-24T22:52:19.076Z,-0.51
2018-12-24T22:54:47.701Z,-0.48
2018-12-24T22:57:16.482Z,-0.51
2018-12-24T22:59:45.395Z,-0.30
2018-12-24T23:02:14.102Z,-0.49
2018-12-24T23:04:42.733Z,-0.76
2018-12-24T23:07:11.477Z,-0.57
2018-12-24T23:09:41.748Z,-0.56
2018-12-24T23:12:10.401Z,-0.20
2018-12-24T23:14:39.062Z,-0.50
2018-12-24T23:17:07.674Z,-0.52
2018-12-24T23:19:36.266Z,-0.61
2018-12-24T23:22:04.939Z,-0.67
2018-12-24T23:24:33.652Z,-0.52
2018-12-24T23:27:02.308Z,-0.67
2018-12-24T23:29:30.891Z,-0.64
2018-12-24T23:31:59.531Z,-0.58
2018-12-24T23:34:28.179Z,-0.54
2018-12-24T23:36:56.849Z,-0.52
2018-12-24T23:39:25.468Z,-0.44
2018-12-24T23:41:54.077Z,-0.56
2018-12-24T23:44:22.665Z,-0.68
2018-12-24T23:46:51.289Z,-0.83
2018-12-24T23:49:19.940Z,-0.64
2018-12-24T23:51:48.591Z,-0.69
2018-12-24T23:54:17.298Z,-0.49
2018-12-24T23:56:45.877Z,-0.64
2018-12-24T23:59:14.476Z,-0.80
